< < Back
Terminal Aerodrome Forecast


Current Version              Previous Versions:   1  2  3  4  5  6  7  8  9  

Terminal Aerodrome Forecast

553
FTUS42 KCHS 222300
TAFCHS
TAF
KCHS 222322Z 2300/2324 02006KT 6SM -RA BR SCT015 BKN040
      TEMPO 2300/2303 4SM -RA BR SCT015 BKN025
     FM230500 04006KT P6SM SCT008 BKN020
     FM231400 06010KT P6SM SCT020 BKN040=



Latest METAR

011
SAUS80 KWBC 230000 RRA
MTRCHS
METAR KCHS 222356Z 07007KT 7SM -RA FEW007 OVC090 21/19 A3006 RMK AO2
SLP178 P0013 60022 T02110194 10311 20206 50018


USA.gov is the U.S. government's official web portal to all federal, state and local government web resources and services.